COOK1: Arkansas River Nr Coolidge, KS

                                SHEF ID:       COOK1     ARKANSAS R NR COOLIDGE, KS
STATION TYPE:
Regulating: Stage = 8.00, Flow = 2028

PRECIP STAGE STAGE(2) RIV-FLOW WTR-TEMP CONDUCT BAT-LOAD
in ft ft cfs F umho/cm volt
Ccp-Rev Ccp-Rev Ccp-Rev Ccp-Rev Ccp-Rev Ccp-Rev Ccp-Rev
(America/Chicago)
08/03 00:00 0.00 4.59 4.75 389 79.50 3206 12.95
08/03 01:00 0.00 4.61 4.71 394 78.98 3208 12.89
08/03 02:00 0.00 4.62 4.75 397 78.28 3227 12.89
08/03 03:00 0.00 4.61 4.74 394 77.45 3254 12.89
08/03 04:00 0.00 4.62 4.77 397 76.69 3269 12.89
08/03 05:00 0.00 4.60 4.73 392 76.10 3278 12.89
08/03 06:00 0.00 4.58 4.74 386 75.56 3276 12.89
08/03 07:00 0.00 4.60 4.75 392 74.95 3271 12.83
08/03 08:00 0.00 4.59 4.76 389 74.50 3256 12.83
08/03 09:00 0.00 4.58 4.74 386 74.39 3253 12.89
08/03 10:00 0.00 4.60 4.74 392 74.71 3251 13.12
08/03 11:00 0.00 4.60 4.77 392 75.47 3254 13.59
08/03 12:00 0.00 4.59 4.74 389 76.51 3254 13.65
08/03 13:00 0.00 4.59 4.76 389 77.61 3269 13.77
08/03 14:00 0.00 4.59 4.78 389 79.12 3276 13.71
08/03 15:00 0.00 4.61 4.75 394 80.51 3290 13.83
08/03 16:00 0.00 4.62 4.76 397 81.75 3296 13.24
08/03 17:00 0.00 4.55 4.71 378 82.26 3299 13.48
08/03 18:00 0.00 4.59 4.76 389 82.65 3301 13.36
08/03 19:00 0.00 4.60 4.73 392 82.56 3298 13.18
08/03 20:00 0.00 4.58 4.71 386 82.00 3285 13.18
08/03 21:00 0.00 4.59 4.72 389 81.36 3272 13.07
08/03 22:00 0.00 4.57 4.71 384 80.80 3260 13.00
08/03 23:00 ---- ---- ---- ---- ---- ---- ----
Data processed at Sun 04Aug2024 04:30 GMT

Parsing this webpage?

Checkout our new Data API! CWMSDataAPI (CDA)

Timeseries IDs (TSIDs)

TSIDs used from left to right in the data table
COOL.Precip-Inc.Total.1Hour.1Hour.Ccp-Rev
COOL.Stage.Inst.1Hour.0.Ccp-Rev
COOL.Stage-Alt.Inst.1Hour.0.Ccp-Rev
COOL.Flow.Inst.1Hour.0.Ccp-Rev
COOL.Temp-Water.Inst.1Hour.0.Ccp-Rev
COOL.Cond.Inst.1Hour.0.Ccp-Rev
COOL.Volt-Battery Load.Inst.1Hour.0.Ccp-Rev

                            

All information presented herein is the property of the government of the United States of America and may be revised or deleted at any time without prior notice. Dissemination of this information without the expressed written consent of the Public Affairs Office, Tulsa District U.S. Army Corps of Engineers is strictly prohibited. These data are gathered electronically and, as presented, have NOT undergone any form of quality control. These data are NOT guaranteed to be valid or correct.